Zhetygen Airport

Jump to: basic info | weather | comments

Related pages: nearby airports | nearby navaids

Basic information (top)

Location: lon 43.733101, lat 77.119400, elev 1,638 ft / 499 m msl
Status: small_airport

Weather (top)

Current conditions for Almaty Airport 23nm (43km) S (rec'd 2015/03/04 21:30Z):

UAAA 042130Z 24003MPS 1800 R23R/2000VP2000U R23L/P2000N BR FU SCT100 BKN200 01/M03 Q1016 R88/CLRD65 NOSIG

Airport forecast for Almaty Airport 23nm (43km) S (rec'd 2015/03/04 12:18Z):

TAF TAF UAAA 041100Z 0412/0512 16004MPS 3000 BR FU BKN100 TX12/0509Z TNM04/0501Z 
      TEMPO 0413/0505 0600 
      BECMG 0505/0506 02005MPS 5000

Latest comments (top)

No comments yet for Zhetygen Airport

More... (top)

See also NOTAMs and nearby airports and navaids, or visit the Zhetygen Airport page at the main OurAirports website..